This is the latest recevied weather packets stored in our database for station/object AD8PA-13. If no packets are shown the sender has not sent any weather packets the latest 10 day(s).
| Time | Temp. | Humidity | Pressure | Rain* | Wind** | Luminosity | Snow |
|---|---|---|---|---|---|---|---|
| 1777019003 | 12.22° C | 86% | 1010.6 hPa | 0 mm | - | - | - |
| 1777018101 | 12.22° C | 85% | 1010.7 hPa | 0 mm | - | - | - |
| 1777017201 | 12.22° C | 85% | 1010.9 hPa | 0 mm | - | - | - |
| 1777016295 | 12.22° C | 86% | 1011 hPa | 0 mm | - | - | - |
| 1777015392 | 11.67° C | 88% | 1011.1 hPa | 0 mm | - | - | - |
| 1777014489 | 11.67° C | 88% | 1010.9 hPa | 0 mm | - | - | - |
| 1777013589 | 11.67° C | 89% | 1010.9 hPa | 0 mm | - | - | - |
| 1777012686 | 11.67° C | 89% | 1011.1 hPa | 0 mm | - | - | - |
| 1777011786 | 11.67° C | 88% | 1011 hPa | 0 mm | - | - | - |
| 1777010881 | 11.11° C | 90% | 1011.2 hPa | 0 mm | - | - | - |
| 1777009977 | 11.11° C | 90% | 1011.1 hPa | 0 mm | - | - | - |
| 1777009077 | 11.67° C | 89% | 1011.1 hPa | 0 mm | - | - | - |
| 1777008174 | 11.67° C | 88% | 1011.4 hPa | 0 mm | - | - | - |
| 1777007271 | 11.67° C | 88% | 1011.5 hPa | 0 mm | - | - | - |
| 1777006372 | 12.78° C | 86% | 1011.6 hPa | 0 mm | - | - | - |
| 1777005466 | 12.22° C | 85% | 1011.2 hPa | 0 mm | - | - | - |
| 1777004565 | 13.33° C | 83% | 1011.3 hPa | 0 mm | - | - | - |
| 1777003662 | 12.78° C | 84% | 1011.2 hPa | 0 mm | - | - | - |
| 1777002759 | 13.33° C | 82% | 1011.1 hPa | 0 mm | - | - | - |
| 1777001857 | 13.89° C | 82% | 1011.1 hPa | 0 mm | - | - | - |
| 1777000954 | 14.44° C | 79% | 1011.5 hPa | 0 mm | - | - | - |
| 1777000048 | 15° C | 77% | 1011.8 hPa | 0 mm | - | - | - |
| 1776999149 | 15.56° C | 75% | 1011.9 hPa | 0 mm | - | - | - |
| 1776998244 | 15.56° C | 76% | 1011.9 hPa | 0 mm | - | - | - |
| 1776997344 | 16.11° C | 77% | 1012 hPa | 0 mm | - | - | - |
* Rain latest hour (hover to see other rain measurements)
** Current wind speed in m/s (hover to see current wind gust speed)